createdAt,value
2019-04-21T00:04:24.834Z,13.73
2019-04-21T00:07:03.289Z,13.43
2019-04-21T00:09:32.576Z,12.57
2019-04-21T00:12:02.495Z,13.03
2019-04-21T00:14:23.691Z,14.07
2019-04-21T00:16:51.073Z,11.53
2019-04-21T00:19:35.361Z,12.43
2019-04-21T00:22:14.910Z,12.93
2019-04-21T00:24:44.415Z,13.53
2019-04-21T00:27:21.638Z,12.37
2019-04-21T00:29:51.990Z,12.70
2019-04-21T00:32:19.563Z,12.50
2019-04-21T00:34:34.266Z,12.90
2019-04-21T00:37:15.547Z,12.00
2019-04-21T00:40:02.195Z,11.90
2019-04-21T00:42:22.856Z,12.03
2019-04-21T00:44:52.092Z,13.00
2019-04-21T00:47:27.906Z,11.53
2019-04-21T00:49:56.658Z,12.73
2019-04-21T00:53:27.361Z,12.30
2019-04-21T00:55:30.963Z,11.80
2019-04-21T00:57:51.451Z,12.50
2019-04-21T01:00:26.148Z,12.27
2019-04-21T01:02:57.163Z,12.53
2019-04-21T01:05:22.438Z,12.23
2019-04-21T01:07:48.254Z,12.87
2019-04-21T01:10:09.345Z,11.90
2019-04-21T01:12:52.684Z,12.10
2019-04-21T01:15:26.121Z,12.57
2019-04-21T01:17:51.901Z,12.17
2019-04-21T01:20:12.978Z,12.07
2019-04-21T01:22:28.529Z,12.63
2019-04-21T01:25:06.986Z,12.87
2019-04-21T01:27:50.765Z,13.37
2019-04-21T01:30:18.907Z,12.73
2019-04-21T01:32:51.505Z,13.97
2019-04-21T01:35:18.747Z,13.00
2019-04-21T01:37:52.853Z,12.50
2019-04-21T01:40:24.182Z,12.13
2019-04-21T01:43:23.355Z,12.57
2019-04-21T01:45:54.938Z,13.17
2019-04-21T01:48:21.556Z,12.70
2019-04-21T01:50:51.237Z,10.53
2019-04-21T01:53:51.513Z,10.30
2019-04-21T01:58:59.217Z,9.00
2019-04-21T02:01:42.418Z,8.73
2019-04-21T02:04:12.160Z,9.70
2019-04-21T02:06:39.045Z,8.73
2019-04-21T02:09:13.082Z,10.47
2019-04-21T02:16:54.124Z,12.03
2019-04-21T02:21:50.440Z,11.57
2019-04-21T02:24:35.182Z,12.00
2019-04-21T02:26:59.435Z,11.93
2019-04-21T02:32:10.540Z,12.67
2019-04-21T02:34:46.447Z,12.87
2019-04-21T02:42:18.674Z,11.43
2019-04-21T02:47:27.486Z,37.77
2019-04-21T02:52:31.666Z,42.37
2019-04-21T02:57:18.457Z,23.20
2019-04-21T03:02:58.617Z,14.77
2019-04-21T03:05:46.851Z,12.53
2019-04-21T03:08:19.102Z,10.43
2019-04-21T03:13:29.870Z,11.80
2019-04-21T03:18:32.553Z,12.33
2019-04-21T03:23:29.536Z,11.43
2019-04-21T03:26:06.597Z,13.23
2019-04-21T03:28:32.122Z,12.57
2019-04-21T03:34:14.791Z,12.50
2019-04-21T03:40:57.265Z,12.60
2019-04-21T03:43:28.288Z,13.33
2019-04-21T03:48:41.061Z,11.93
2019-04-21T03:50:59.356Z,12.93
2019-04-21T03:53:51.684Z,12.70
2019-04-21T03:56:27.012Z,11.77
2019-04-21T03:58:54.419Z,11.30
2019-04-21T04:12:26.802Z,13.93
2019-04-21T04:15:00.715Z,15.60
2019-04-21T04:17:25.488Z,13.93
2019-04-21T04:20:05.996Z,12.83
2019-04-21T04:22:33.974Z,12.63
2019-04-21T04:27:37.723Z,12.00
2019-04-21T04:33:07.879Z,13.07
2019-04-21T04:45:58.839Z,12.87
2019-04-21T04:48:29.072Z,12.30
2019-04-21T04:53:58.828Z,10.23
2019-04-21T04:56:18.319Z,11.37
2019-04-21T05:03:48.904Z,11.30
2019-04-21T05:11:46.764Z,10.87
2019-04-21T05:20:05.512Z,7.73
2019-04-21T05:22:21.967Z,6.73
2019-04-21T05:24:52.647Z,6.60
2019-04-21T05:27:39.904Z,7.67
2019-04-21T05:30:23.273Z,5.90
2019-04-21T05:33:03.637Z,6.10
2019-04-21T05:35:57.286Z,5.33
2019-04-21T05:41:13.083Z,5.83
2019-04-21T05:43:50.344Z,6.07
2019-04-21T05:46:21.241Z,6.07
2019-04-21T05:48:52.554Z,5.90
2019-04-21T05:51:39.616Z,5.93
2019-04-21T05:54:24.677Z,6.47
2019-04-21T05:56:40.718Z,6.67
2019-04-21T05:59:13.505Z,5.63
2019-04-21T06:01:46.731Z,6.60
2019-04-21T06:04:46.916Z,29.47
2019-04-21T06:07:12.247Z,6.67
2019-04-21T06:09:39.956Z,12.67
2019-04-21T06:12:05.925Z,5.67
2019-04-21T06:14:37.007Z,5.03
2019-04-21T06:19:43.271Z,15.97
2019-04-21T06:27:27.583Z,13.63
2019-04-21T06:29:55.756Z,4.93
2019-04-21T06:32:38.510Z,5.80
2019-04-21T06:42:51.458Z,8.17
2019-04-21T06:48:11.219Z,6.00
2019-04-21T06:51:04.234Z,5.20
2019-04-21T06:56:25.253Z,8.97
2019-04-21T06:58:47.994Z,6.57
2019-04-21T07:01:21.636Z,6.40
2019-04-21T07:03:49.364Z,6.13
2019-04-21T07:06:18.365Z,5.60
2019-04-21T07:14:15.029Z,5.37
2019-04-21T07:16:36.705Z,5.03
2019-04-21T07:19:05.909Z,12.27
2019-04-21T07:21:31.101Z,6.63
2019-04-21T07:23:59.143Z,6.10
2019-04-21T07:26:51.561Z,21.80
2019-04-21T07:32:04.344Z,15.40
2019-04-21T07:39:27.079Z,10.10
2019-04-21T07:41:53.987Z,7.90
2019-04-21T07:44:22.817Z,7.23
2019-04-21T07:46:54.007Z,6.60
2019-04-21T07:49:53.777Z,17.17
2019-04-21T07:52:39.498Z,16.30
2019-04-21T07:55:18.641Z,24.00
2019-04-21T07:57:36.628Z,16.90
2019-04-21T08:02:34.155Z,6.57
2019-04-21T08:05:16.044Z,6.90
2019-04-21T08:08:06.469Z,6.13
2019-04-21T08:10:28.605Z,5.70
2019-04-21T08:12:54.470Z,5.70
2019-04-21T08:15:29.123Z,4.93
2019-04-21T08:17:57.154Z,4.40
2019-04-21T08:23:25.621Z,4.40
2019-04-21T08:25:58.958Z,5.30
2019-04-21T08:28:22.532Z,5.87
2019-04-21T08:30:51.905Z,5.50
2019-04-21T08:36:14.426Z,5.60
2019-04-21T08:38:20.402Z,5.17
2019-04-21T08:40:55.839Z,5.10
2019-04-21T08:43:30.616Z,5.87
2019-04-21T08:45:52.945Z,5.13
2019-04-21T08:48:25.649Z,5.80
2019-04-21T08:51:08.305Z,5.27
2019-04-21T08:53:26.052Z,5.47
2019-04-21T08:56:18.442Z,8.27
2019-04-21T09:02:09.195Z,5.60
2019-04-21T09:04:33.473Z,5.10
2019-04-21T09:07:28.820Z,6.20
2019-04-21T09:09:42.298Z,4.30
2019-04-21T09:12:04.803Z,5.03
2019-04-21T09:14:36.628Z,5.43
2019-04-21T09:17:00.492Z,4.50
2019-04-21T09:19:51.830Z,4.73
2019-04-21T09:22:05.710Z,4.70
2019-04-21T09:24:42.906Z,4.40
2019-04-21T09:27:05.117Z,4.93
2019-04-21T09:29:49.217Z,4.43
2019-04-21T09:32:16.144Z,5.10
2019-04-21T09:34:43.766Z,4.90
2019-04-21T09:37:18.994Z,5.37
2019-04-21T09:39:43.911Z,5.07
2019-04-21T09:42:09.244Z,4.63
2019-04-21T09:50:06.633Z,5.33
2019-04-21T09:55:53.637Z,4.47
2019-04-21T09:58:24.004Z,5.93
2019-04-21T10:00:56.630Z,4.60
2019-04-21T10:03:16.306Z,5.50
2019-04-21T10:05:45.254Z,5.70
2019-04-21T10:08:16.587Z,4.53
2019-04-21T10:10:46.608Z,5.57
2019-04-21T10:13:15.657Z,4.57
2019-04-21T10:18:21.680Z,4.77
2019-04-21T10:20:51.314Z,5.10
2019-04-21T10:23:19.674Z,4.80
2019-04-21T10:28:23.330Z,5.63
2019-04-21T10:30:52.875Z,5.13
2019-04-21T10:36:35.112Z,4.53
2019-04-21T10:41:59.584Z,6.37
2019-04-21T10:44:29.443Z,4.93
2019-04-21T10:47:00.561Z,5.33
2019-04-21T10:49:30.662Z,5.13
2019-04-21T10:54:58.050Z,5.07
2019-04-21T10:59:47.970Z,4.50
2019-04-21T11:05:02.945Z,5.13
2019-04-21T11:08:00.920Z,4.93
2019-04-21T11:10:22.168Z,4.40
2019-04-21T11:15:47.531Z,5.33
2019-04-21T11:18:17.749Z,5.50
2019-04-21T11:20:47.242Z,5.43
2019-04-21T11:23:18.035Z,4.90
2019-04-21T11:25:46.218Z,4.60
2019-04-21T11:28:16.695Z,4.60
2019-04-21T11:30:46.683Z,4.90
2019-04-21T11:33:17.388Z,4.77
2019-04-21T11:35:46.728Z,4.60
2019-04-21T11:38:51.242Z,4.93
2019-04-21T11:41:05.486Z,4.63
2019-04-21T11:43:35.131Z,5.07
2019-04-21T11:46:04.847Z,5.53
2019-04-21T11:48:34.500Z,4.57
2019-04-21T11:51:23.166Z,4.63
2019-04-21T11:53:52.763Z,4.17
2019-04-21T11:59:09.967Z,4.17
2019-04-21T12:04:27.533Z,4.33
2019-04-21T12:06:57.899Z,4.00
2019-04-21T12:12:03.398Z,4.37
2019-04-21T12:14:32.527Z,4.33
2019-04-21T12:19:50.650Z,4.50
2019-04-21T12:22:25.363Z,3.93
2019-04-21T12:24:51.294Z,4.87
2019-04-21T12:27:20.518Z,4.00
2019-04-21T12:29:49.373Z,5.53
2019-04-21T12:32:38.153Z,5.10
2019-04-21T12:43:30.586Z,4.33
2019-04-21T12:46:00.049Z,4.70
2019-04-21T12:48:29.760Z,4.70
2019-04-21T12:50:59.683Z,4.73
2019-04-21T12:53:29.590Z,3.97
2019-04-21T12:55:59.926Z,3.93
2019-04-21T12:58:29.121Z,4.27
2019-04-21T13:00:59.238Z,4.10
2019-04-21T13:03:28.720Z,4.77
2019-04-21T13:05:58.028Z,5.07
2019-04-21T13:08:29.192Z,5.20
2019-04-21T13:10:58.110Z,4.47
2019-04-21T13:13:28.181Z,5.20
2019-04-21T13:15:58.177Z,4.70
2019-04-21T13:18:27.032Z,4.00
2019-04-21T13:20:59.278Z,4.80
2019-04-21T13:23:27.087Z,6.03
2019-04-21T13:25:57.054Z,4.53
2019-04-21T13:28:25.601Z,4.23
2019-04-21T13:30:54.314Z,4.63
2019-04-21T13:33:22.993Z,19.30
2019-04-21T13:44:30.986Z,5.47
2019-04-21T13:47:00.688Z,4.47
2019-04-21T13:49:29.654Z,7.53
2019-04-21T13:51:58.115Z,4.07
2019-04-21T13:54:27.426Z,5.27
2019-04-21T13:56:58.513Z,4.77
2019-04-21T13:59:28.528Z,4.63
2019-04-21T14:01:58.418Z,4.03
2019-04-21T14:04:47.356Z,4.70
2019-04-21T14:07:16.497Z,4.20
2019-04-21T14:09:54.807Z,4.50
2019-04-21T14:12:15.263Z,3.73
2019-04-21T14:19:59.419Z,4.40
2019-04-21T14:22:29.286Z,5.20
2019-04-21T14:24:57.832Z,3.97
2019-04-21T14:27:26.264Z,4.57
2019-04-21T14:29:55.580Z,3.43
2019-04-21T14:32:26.434Z,4.13
2019-04-21T14:34:55.046Z,4.40
2019-04-21T14:37:24.717Z,4.23
2019-04-21T14:40:01.858Z,4.20
2019-04-21T14:42:24.343Z,3.93
2019-04-21T14:47:46.610Z,4.23
2019-04-21T14:50:34.445Z,4.77
2019-04-21T14:53:21.850Z,4.60
2019-04-21T14:55:51.207Z,4.30
2019-04-21T14:58:21.197Z,4.40
2019-04-21T15:01:10.396Z,3.87
2019-04-21T15:03:39.998Z,4.13
2019-04-21T15:06:11.494Z,5.67
2019-04-21T15:08:40.193Z,5.20
2019-04-21T15:11:08.741Z,4.97
2019-04-21T15:13:56.084Z,4.10
2019-04-21T15:16:24.980Z,3.63
2019-04-21T15:18:54.750Z,4.13
2019-04-21T15:23:58.170Z,3.73
2019-04-21T15:26:28.469Z,4.10
2019-04-21T15:28:57.327Z,4.13
2019-04-21T15:31:30.512Z,5.63
2019-04-21T15:33:57.005Z,4.43
2019-04-21T15:36:27.230Z,5.00
2019-04-21T15:38:56.434Z,5.23
2019-04-21T15:41:26.719Z,4.53
2019-04-21T15:44:09.737Z,5.53
2019-04-21T15:49:58.953Z,5.63
2019-04-21T15:52:22.148Z,5.90
2019-04-21T15:57:46.887Z,6.60
2019-04-21T16:00:34.638Z,7.10
2019-04-21T16:03:04.530Z,7.20
2019-04-21T16:05:34.755Z,8.00
2019-04-21T16:08:03.631Z,6.60
2019-04-21T16:10:42.864Z,6.90
2019-04-21T16:13:03.467Z,8.80
2019-04-21T16:15:32.897Z,7.83
2019-04-21T16:18:01.657Z,6.80
2019-04-21T16:23:08.571Z,6.57
2019-04-21T16:25:38.996Z,9.57
2019-04-21T16:33:29.597Z,25.10
2019-04-21T16:35:58.146Z,29.67
2019-04-21T16:38:26.593Z,37.87
2019-04-21T16:40:59.756Z,71.97
2019-04-21T16:43:26.976Z,39.27
2019-04-21T16:48:30.909Z,31.63
2019-04-21T16:51:01.549Z,37.50
2019-04-21T16:53:50.318Z,28.70
2019-04-21T16:56:39.523Z,29.20
2019-04-21T16:59:28.586Z,27.77
2019-04-21T17:01:58.665Z,25.27
2019-04-21T17:04:28.749Z,19.00
2019-04-21T17:14:53.680Z,7.97
2019-04-21T17:17:51.314Z,10.03
2019-04-21T17:20:15.746Z,10.40
2019-04-21T17:22:51.519Z,15.47
2019-04-21T17:27:55.071Z,15.70
2019-04-21T17:30:24.250Z,19.87
2019-04-21T17:35:38.602Z,50.60
2019-04-21T17:38:08.446Z,57.30
2019-04-21T17:40:37.858Z,26.50
2019-04-21T17:45:59.846Z,41.73
2019-04-21T17:48:29.297Z,39.63
2019-04-21T17:51:17.665Z,39.90
2019-04-21T17:54:14.798Z,32.57
2019-04-21T17:56:59.856Z,33.93
2019-04-21T17:59:43.225Z,35.47
2019-04-21T18:04:50.999Z,34.53
2019-04-21T18:13:04.910Z,21.90
2019-04-21T18:15:44.174Z,22.30
2019-04-21T18:17:58.764Z,23.50
2019-04-21T18:20:30.330Z,25.97
2019-04-21T18:23:33.614Z,34.33
2019-04-21T18:25:57.901Z,43.93
2019-04-21T18:28:18.613Z,41.87
2019-04-21T18:34:09.913Z,41.27
2019-04-21T18:36:54.195Z,16.03
2019-04-21T18:39:49.753Z,14.53
2019-04-21T18:42:26.310Z,33.93
2019-04-21T18:48:06.790Z,44.87
2019-04-21T18:50:47.857Z,29.53
2019-04-21T18:53:32.446Z,32.57
2019-04-21T18:55:51.454Z,19.83
2019-04-21T18:58:18.131Z,25.93
2019-04-21T19:00:48.820Z,21.97
2019-04-21T19:03:25.240Z,20.20
2019-04-21T19:05:53.183Z,10.50
2019-04-21T19:11:15.121Z,7.97
2019-04-21T19:14:17.561Z,9.20
2019-04-21T19:16:33.664Z,8.17
2019-04-21T19:19:33.037Z,9.07
2019-04-21T19:21:24.548Z,9.63
2019-04-21T19:24:02.994Z,10.57
2019-04-21T19:26:40.987Z,9.23
2019-04-21T19:29:06.257Z,8.53
2019-04-21T19:31:50.627Z,9.57
2019-04-21T19:34:08.250Z,10.00
2019-04-21T19:36:32.773Z,9.17
2019-04-21T19:39:10.743Z,10.20
2019-04-21T19:41:45.749Z,11.90
2019-04-21T19:44:17.426Z,11.20
2019-04-21T19:46:49.169Z,8.00
2019-04-21T19:49:30.468Z,8.67
2019-04-21T19:51:44.057Z,7.53
2019-04-21T19:54:13.263Z,6.77
2019-04-21T19:56:34.046Z,7.23
2019-04-21T19:59:03.471Z,7.00
2019-04-21T20:01:32.611Z,7.47
2019-04-21T20:04:02.720Z,7.47
2019-04-21T20:06:45.600Z,6.90
2019-04-21T20:09:17.825Z,7.63
2019-04-21T20:11:47.537Z,7.90
2019-04-21T20:14:45.052Z,7.23
2019-04-21T20:16:51.678Z,5.70
2019-04-21T20:19:07.795Z,6.30
2019-04-21T20:21:33.076Z,6.77
2019-04-21T20:24:09.150Z,6.60
2019-04-21T20:26:39.105Z,5.80
2019-04-21T20:29:14.009Z,6.23
2019-04-21T20:31:46.989Z,6.73
2019-04-21T20:34:30.076Z,7.17
2019-04-21T20:36:57.316Z,5.93
2019-04-21T20:39:08.306Z,6.07
2019-04-21T20:41:45.510Z,4.90
2019-04-21T20:44:19.521Z,5.33
2019-04-21T20:46:53.135Z,5.67
2019-04-21T20:49:15.808Z,5.47
2019-04-21T20:51:54.128Z,6.43
2019-04-21T20:54:25.774Z,7.77
2019-04-21T20:56:55.118Z,7.83
2019-04-21T20:59:19.766Z,7.43
2019-04-21T21:01:53.269Z,8.60
2019-04-21T21:04:16.287Z,9.87
2019-04-21T21:06:47.122Z,9.97
2019-04-21T21:12:19.160Z,8.07
2019-04-21T21:14:31.944Z,8.83
2019-04-21T21:17:06.520Z,9.07
2019-04-21T21:19:34.580Z,8.73
2019-04-21T21:22:14.311Z,11.53
2019-04-21T21:24:50.479Z,11.77
2019-04-21T21:30:08.331Z,40.50
2019-04-21T21:32:48.189Z,30.03
2019-04-21T21:35:13.755Z,10.00
2019-04-21T21:40:51.722Z,14.47
2019-04-21T21:43:13.067Z,10.47
2019-04-21T21:45:42.169Z,8.40
2019-04-21T21:48:21.815Z,7.33
2019-04-21T21:50:50.871Z,6.33
2019-04-21T21:53:15.396Z,6.00
2019-04-21T21:55:40.584Z,5.47
2019-04-21T21:58:10.457Z,5.37
2019-04-21T22:03:38.056Z,5.77
2019-04-21T22:06:09.413Z,5.70
2019-04-21T22:08:34.249Z,7.67
2019-04-21T22:11:03.333Z,11.83
2019-04-21T22:13:37.562Z,9.90
2019-04-21T22:16:06.982Z,8.67
2019-04-21T22:18:44.019Z,8.17
2019-04-21T22:21:15.958Z,7.17
2019-04-21T22:23:39.885Z,7.63
2019-04-21T22:26:01.365Z,8.07
2019-04-21T22:28:29.797Z,8.03
2019-04-21T22:30:58.728Z,7.83
2019-04-21T22:33:34.495Z,6.83
2019-04-21T22:36:05.914Z,6.60
2019-04-21T22:38:43.729Z,7.23
2019-04-21T22:41:10.658Z,7.53
2019-04-21T22:43:36.668Z,6.77
2019-04-21T22:48:32.954Z,7.47
2019-04-21T22:51:02.988Z,7.60
2019-04-21T22:53:36.264Z,6.97
2019-04-21T22:56:10.889Z,7.23
2019-04-21T22:58:35.711Z,6.90
2019-04-21T23:01:04.881Z,6.23
2019-04-21T23:06:25.062Z,5.73
2019-04-21T23:08:51.222Z,5.73
2019-04-21T23:11:21.555Z,5.47
2019-04-21T23:13:52.669Z,5.17
2019-04-21T23:16:28.032Z,5.73
2019-04-21T23:19:10.933Z,5.90
2019-04-21T23:21:36.202Z,5.70
2019-04-21T23:24:13.591Z,5.60
2019-04-21T23:26:37.711Z,6.30
2019-04-21T23:29:14.005Z,6.27
2019-04-21T23:31:39.871Z,5.87
2019-04-21T23:33:52.588Z,7.80
2019-04-21T23:36:26.186Z,7.47
2019-04-21T23:38:55.042Z,6.97
2019-04-21T23:41:25.992Z,7.20
2019-04-21T23:44:01.875Z,6.97
2019-04-21T23:46:28.151Z,7.67
2019-04-21T23:49:07.567Z,8.97
2019-04-21T23:51:34.420Z,11.40
2019-04-21T23:53:53.494Z,14.13
2019-04-21T23:56:32.678Z,30.00
